Time;durP1;ratioP1;P1;durP2;ratioP2;P2;SDS_P1;SDS_P2;PMS_P1;PMS_P2;Temp;Humidity;BMP_temperature;BMP_pressure;BME280_temperature;BME280_humidity;BME280_pressure;Samples;Min_cycle;Max_cycle;Signal;HPM_P1;HPM_P2
2022/04/08 00:01:50;;;;;;;3.70;1.13;;;5.50;91.70;;;;;;5053654;28;20021;-83
2022/04/08 00:04:16;;;;;;;6.85;1.55;;;5.50;92.10;;;;;;5070031;28;20032;-83
2022/04/08 00:06:41;;;;;;;2.72;1.25;;;5.50;92.20;;;;;;5053523;28;20023;-83
2022/04/08 00:09:07;;;;;;;4.90;1.05;;;5.50;92.70;;;;;;5048149;28;20023;-83
2022/04/08 00:11:33;;;;;;;5.57;1.30;;;5.50;92.70;;;;;;5037607;28;20016;-84
2022/04/08 00:14:00;;;;;;;3.05;1.20;;;5.40;92.90;;;;;;5054089;28;20021;-84
2022/04/08 00:16:26;;;;;;;1.60;0.60;;;5.30;93.10;;;;;;5053319;28;20483;-84
2022/04/08 00:18:51;;;;;;;3.83;1.00;;;5.10;93.10;;;;;;5047266;28;20123;-83
2022/04/08 00:21:17;;;;;;;2.55;0.73;;;5.00;93.00;;;;;;5050503;28;20510;-83
2022/04/08 00:23:43;;;;;;;5.93;1.05;;;4.90;93.10;;;;;;5052933;28;20186;-83
2022/04/08 00:26:09;;;;;;;2.63;0.73;;;4.80;93.20;;;;;;5069693;28;20051;-83
2022/04/08 00:28:35;;;;;;;5.57;1.00;;;4.60;93.10;;;;;;5071995;28;20032;-83
2022/04/08 00:31:02;;;;;;;1.45;0.82;;;4.60;93.20;;;;;;5053429;28;20514;-83
2022/04/08 00:33:30;;;;;;;6.93;1.02;;;4.40;93.30;;;;;;5053472;28;20206;-83
2022/04/08 00:35:56;;;;;;;1.92;0.80;;;4.40;93.50;;;;;;5054308;28;20047;-83
2022/04/08 00:38:21;;;;;;;4.43;0.98;;;4.30;93.60;;;;;;5066896;28;20131;-83
2022/04/08 00:40:47;;;;;;;3.63;1.55;;;4.40;93.70;;;;;;5071089;28;20016;-82
2022/04/08 00:43:17;;;;;;;4.30;1.00;;;4.30;93.70;;;;;;5070831;28;20111;-82
2022/04/08 00:45:43;;;;;;;4.75;1.23;;;4.30;93.60;;;;;;5070382;28;20033;-82
2022/04/08 00:48:09;;;;;;;2.22;0.93;;;4.20;93.40;;;;;;5077141;28;20029;-83
2022/04/08 00:50:38;;;;;;;6.88;1.40;;;4.30;93.60;;;;;;5072640;28;20549;-82
2022/04/08 00:53:05;;;;;;;6.95;1.33;;;4.30;93.50;;;;;;5067843;28;20028;-82
2022/04/08 00:55:30;;;;;;;4.95;1.63;;;4.30;93.60;;;;;;5071570;28;20029;-82
2022/04/08 00:57:56;;;;;;;4.20;1.52;;;4.20;93.70;;;;;;5071588;28;20020;-82
2022/04/08 01:00:24;;;;;;;2.90;1.20;;;4.30;93.90;;;;;;5069682;28;20032;-82
2022/04/08 01:02:49;;;;;;;4.88;1.20;;;4.30;94.10;;;;;;5064548;28;20032;-82
2022/04/08 01:05:15;;;;;;;5.97;1.65;;;4.20;94.00;;;;;;5069360;28;20029;-81
2022/04/08 01:07:40;;;;;;;6.40;1.15;;;4.20;94.20;;;;;;5070248;28;20564;-82
2022/04/08 01:10:06;;;;;;;7.20;1.30;;;4.30;94.20;;;;;;5064023;28;20025;-82
2022/04/08 01:12:32;;;;;;;4.28;1.10;;;4.30;94.20;;;;;;5063807;28;20040;-82
2022/04/08 01:14:59;;;;;;;3.92;1.13;;;4.20;94.10;;;;;;5069882;28;20369;-82
2022/04/08 01:17:25;;;;;;;7.80;1.70;;;4.30;94.10;;;;;;5066360;28;20031;-82
2022/04/08 01:19:50;;;;;;;6.03;1.17;;;4.20;93.90;;;;;;5071069;28;20029;-82
2022/04/08 01:22:18;;;;;;;9.63;1.70;;;4.20;93.70;;;;;;5071235;28;20032;-82
2022/04/08 01:24:47;;;;;;;4.10;1.50;;;4.20;93.40;;;;;;5073883;28;20028;-82
2022/04/08 01:27:13;;;;;;;7.70;1.63;;;4.20;93.20;;;;;;5069096;28;20028;-82
2022/04/08 01:29:38;;;;;;;5.38;1.25;;;4.20;93.30;;;;;;5072864;28;20025;-82
2022/04/08 01:32:04;;;;;;;4.10;1.30;;;4.30;93.20;;;;;;5073890;28;20399;-82
2022/04/08 01:34:30;;;;;;;9.55;1.35;;;4.20;93.10;;;;;;5071155;28;20035;-82
2022/04/08 01:36:55;;;;;;;5.35;1.13;;;4.20;93.10;;;;;;5073557;28;20059;-82
2022/04/08 01:39:21;;;;;;;11.88;1.42;;;4.30;93.20;;;;;;5056445;28;20067;-82
2022/04/08 01:41:46;;;;;;;5.60;1.15;;;4.30;93.10;;;;;;5055240;28;20056;-82
2022/04/08 01:44:12;;;;;;;4.78;1.05;;;4.30;93.10;;;;;;5053525;28;20108;-82
2022/04/08 01:46:37;;;;;;;6.43;1.30;;;4.30;93.10;;;;;;5058763;28;20021;-82
2022/04/08 01:49:03;;;;;;;9.07;1.30;;;4.30;93.00;;;;;;5066326;28;20038;-82
2022/04/08 01:51:28;;;;;;;6.63;1.00;;;4.30;92.60;;;;;;5072968;28;20024;-82
2022/04/08 01:53:54;;;;;;;2.88;0.85;;;4.30;92.20;;;;;;5055329;28;20028;-82
2022/04/08 01:56:20;;;;;;;6.18;1.35;;;4.20;92.50;;;;;;5056365;28;20392;-82
2022/04/08 01:58:46;;;;;;;6.20;1.40;;;4.20;92.50;;;;;;5074711;28;20028;-82
2022/04/08 02:01:11;;;;;;;2.30;0.90;;;4.20;92.50;;;;;;5052626;28;20029;-82
2022/04/08 02:03:37;;;;;;;5.50;1.60;;;4.20;92.40;;;;;;5068335;28;20502;-82
2022/04/08 02:06:03;;;;;;;4.30;1.20;;;4.20;92.60;;;;;;5054672;28;20391;-83
2022/04/08 02:08:28;;;;;;;7.00;1.52;;;4.10;92.60;;;;;;5046671;28;20029;-82
2022/04/08 02:10:54;;;;;;;5.15;1.23;;;4.10;92.60;;;;;;5042861;28;20115;-82
2022/04/08 02:13:20;;;;;;;8.35;1.58;;;4.20;92.50;;;;;;5070848;28;20036;-82
2022/04/08 02:15:46;;;;;;;3.72;1.10;;;4.20;92.40;;;;;;5074161;28;20035;-82
2022/04/08 02:18:12;;;;;;;7.78;1.38;;;4.20;92.50;;;;;;5055371;28;20037;-83
2022/04/08 02:20:39;;;;;;;9.15;1.20;;;4.20;92.60;;;;;;5044476;28;20021;-82
2022/04/08 02:23:05;;;;;;;4.65;1.00;;;4.20;92.50;;;;;;5069635;28;20024;-83
2022/04/08 02:25:31;;;;;;;19.05;1.90;;;4.20;92.40;;;;;;5051786;28;20029;-82
2022/04/08 02:27:57;;;;;;;5.45;1.30;;;4.30;92.40;;;;;;5056558;28;20038;-82
2022/04/08 02:30:23;;;;;;;7.20;1.27;;;4.30;92.50;;;;;;5055573;28;20119;-82
2022/04/08 02:32:49;;;;;;;12.25;1.40;;;4.30;92.60;;;;;;5055023;28;20562;-82
2022/04/08 02:35:14;;;;;;;5.40;1.08;;;4.30;92.40;;;;;;5055045;28;20079;-83
2022/04/08 02:37:40;;;;;;;4.05;1.08;;;4.30;92.10;;;;;;5073591;28;20509;-82
2022/04/08 02:40:06;;;;;;;10.88;1.60;;;4.30;92.00;;;;;;5073555;28;20473;-82
2022/04/08 02:42:32;;;;;;;6.95;1.27;;;4.30;92.00;;;;;;5070134;28;20024;-82
2022/04/08 02:44:58;;;;;;;7.95;1.45;;;4.30;91.80;;;;;;5073698;28;20020;-83
2022/04/08 02:47:24;;;;;;;3.15;1.00;;;4.30;92.00;;;;;;5065667;28;20384;-84
2022/04/08 02:49:50;;;;;;;4.32;0.90;;;4.20;92.70;;;;;;5068030;28;20058;-83
2022/04/08 02:52:15;;;;;;;6.10;0.90;;;4.10;93.10;;;;;;5067593;28;20110;-83
2022/04/08 02:54:41;;;;;;;1.02;0.47;;;4.00;93.40;;;;;;5055024;28;20087;-83
2022/04/08 02:57:06;;;;;;;6.18;1.20;;;3.60;92.70;;;;;;5062346;28;20024;-83
2022/04/08 02:59:32;;;;;;;3.38;0.80;;;3.40;93.00;;;;;;5067283;28;20084;-84
2022/04/08 03:01:58;;;;;;;5.20;0.90;;;3.30;92.70;;;;;;5062343;28;20036;-83
2022/04/08 03:04:25;;;;;;;5.60;1.27;;;3.20;92.90;;;;;;5069684;28;20464;-83
2022/04/08 03:06:51;;;;;;;5.80;1.38;;;3.20;92.60;;;;;;5069459;28;20025;-83
2022/04/08 03:09:17;;;;;;;5.70;1.40;;;3.20;93.00;;;;;;5070012;28;20024;-83
2022/04/08 03:11:42;;;;;;;5.47;1.08;;;3.10;92.70;;;;;;5072325;28;20024;-83
2022/04/08 03:14:08;;;;;;;6.75;1.30;;;3.00;92.60;;;;;;5065328;28;20099;-83
2022/04/08 03:16:33;;;;;;;1.75;0.80;;;2.90;92.60;;;;;;5055121;28;20108;-82
2022/04/08 03:18:59;;;;;;;5.90;1.13;;;2.90;92.10;;;;;;5070070;28;20052;-82
2022/04/08 03:21:25;;;;;;;5.90;1.35;;;2.90;91.90;;;;;;5071745;28;20024;-82
2022/04/08 03:23:50;;;;;;;4.00;1.08;;;2.80;91.30;;;;;;5070681;28;20059;-82
2022/04/08 03:26:16;;;;;;;3.92;1.20;;;2.80;90.70;;;;;;5062359;28;20523;-83
2022/04/08 03:28:43;;;;;;;5.05;1.10;;;2.80;90.60;;;;;;5071176;28;20032;-82
2022/04/08 03:31:09;;;;;;;5.82;1.23;;;2.70;90.50;;;;;;5070061;28;20476;-82
2022/04/08 03:33:37;;;;;;;4.30;1.45;;;2.70;90.20;;;;;;5066348;28;20046;-83
2022/04/08 03:36:03;;;;;;;6.22;0.98;;;2.60;90.60;;;;;;5069711;28;20056;-83
2022/04/08 03:38:29;;;;;;;6.80;1.38;;;2.60;90.90;;;;;;5071945;28;20028;-83
2022/04/08 03:40:55;;;;;;;10.25;1.35;;;2.50;91.20;;;;;;5072963;28;20421;-83
2022/04/08 03:43:21;;;;;;;9.00;1.30;;;2.50;91.30;;;;;;5058481;28;20043;-83
2022/04/08 03:45:47;;;;;;;7.15;1.35;;;2.50;91.50;;;;;;5071140;28;20024;-82
2022/04/08 03:48:12;;;;;;;8.90;1.20;;;2.40;91.70;;;;;;5070586;28;20029;-82
2022/04/08 03:50:38;;;;;;;8.50;1.17;;;2.50;91.90;;;;;;5068761;28;20111;-82
2022/04/08 03:53:03;;;;;;;6.55;1.48;;;2.40;92.20;;;;;;5070441;28;20369;-82
2022/04/08 03:55:29;;;;;;;9.35;1.67;;;2.50;92.50;;;;;;5070926;28;20082;-82
2022/04/08 03:57:54;;;;;;;6.22;1.27;;;2.40;92.50;;;;;;5066325;28;20063;-82
2022/04/08 04:00:20;;;;;;;4.57;0.90;;;2.50;92.60;;;;;;5066341;28;20567;-82
2022/04/08 04:02:46;;;;;;;8.60;0.95;;;2.50;92.60;;;;;;5069131;28;20032;-82
2022/04/08 04:05:11;;;;;;;9.52;1.50;;;2.60;92.50;;;;;;5061134;28;20055;-82
2022/04/08 04:07:37;;;;;;;7.78;1.52;;;2.60;92.30;;;;;;5067926;28;20033;-82
2022/04/08 04:10:03;;;;;;;8.75;1.50;;;2.60;92.00;;;;;;5064250;28;20025;-82
2022/04/08 04:12:29;;;;;;;5.90;1.02;;;2.70;91.90;;;;;;5066211;28;20032;-82
2022/04/08 04:14:55;;;;;;;10.85;1.35;;;2.70;91.70;;;;;;5070911;28;20020;-82
2022/04/08 04:17:22;;;;;;;7.55;1.08;;;2.70;91.70;;;;;;5066346;28;20414;-82
2022/04/08 04:19:48;;;;;;;5.40;0.90;;;2.70;91.70;;;;;;5069727;28;20040;-83
2022/04/08 04:22:14;;;;;;;5.88;1.13;;;2.80;91.40;;;;;;5069887;28;20025;-84
2022/04/08 04:24:39;;;;;;;6.15;1.48;;;2.80;91.50;;;;;;5072444;28;20041;-83
2022/04/08 04:27:05;;;;;;;4.85;0.95;;;2.90;91.30;;;;;;5072848;28;20024;-82
2022/04/08 04:29:30;;;;;;;2.72;1.02;;;2.90;91.30;;;;;;5071185;28;20430;-82
2022/04/08 04:31:56;;;;;;;6.63;1.42;;;2.80;91.40;;;;;;5059125;28;20021;-83
2022/04/08 04:34:23;;;;;;;6.60;1.30;;;2.80;91.50;;;;;;5069029;28;20040;-82
2022/04/08 04:36:49;;;;;;;5.22;1.05;;;2.80;91.70;;;;;;5037528;28;20048;-83
2022/04/08 04:39:14;;;;;;;12.10;1.38;;;2.80;91.70;;;;;;5052411;28;20029;-83
2022/04/08 04:41:40;;;;;;;9.70;1.20;;;2.80;91.60;;;;;;5028261;28;20025;-83
2022/04/08 04:44:05;;;;;;;7.30;1.50;;;2.90;91.60;;;;;;5055452;28;20373;-83
2022/04/08 04:46:31;;;;;;;5.43;1.27;;;2.80;91.70;;;;;;5034746;28;20029;-83
2022/04/08 04:48:56;;;;;;;11.35;1.23;;;2.80;91.70;;;;;;5049869;28;20017;-83
2022/04/08 04:51:22;;;;;;;7.57;1.38;;;2.80;91.60;;;;;;5032293;28;20029;-83
2022/04/08 04:53:47;;;;;;;11.65;1.50;;;2.90;91.60;;;;;;5032880;28;20040;-83
2022/04/08 04:56:13;;;;;;;7.32;1.58;;;2.90;91.40;;;;;;5042019;28;20498;-82
2022/04/08 04:58:38;;;;;;;7.53;1.23;;;3.00;91.40;;;;;;5055873;28;20025;-83
2022/04/08 05:01:04;;;;;;;6.90;1.40;;;3.00;91.20;;;;;;5038178;28;20526;-83
2022/04/08 05:03:29;;;;;;;8.60;1.20;;;3.00;91.40;;;;;;5037048;28;20029;-83
2022/04/08 05:05:55;;;;;;;7.10;1.30;;;3.00;91.50;;;;;;5036664;28;20032;-83
2022/04/08 05:08:21;;;;;;;7.03;1.15;;;3.10;91.40;;;;;;5043127;28;20482;-82
2022/04/08 05:10:47;;;;;;;7.15;1.23;;;3.10;91.60;;;;;;5055054;28;20025;-83
2022/04/08 05:13:12;;;;;;;11.63;1.50;;;3.10;91.70;;;;;;5037737;28;20029;-82
2022/04/08 05:15:42;;;;;;;8.43;1.58;;;3.00;91.80;;;;;;5030630;28;20392;-83
2022/04/08 05:18:14;;;;;;;11.85;1.83;;;3.00;91.80;;;;;;5055170;28;20028;-83
2022/04/08 05:20:39;;;;;;;6.75;1.35;;;3.00;91.80;;;;;;5053840;28;20028;-83
2022/04/08 05:23:05;;;;;;;14.77;1.80;;;3.00;92.00;;;;;;5035103;28;20033;-83
2022/04/08 05:25:31;;;;;;;7.10;1.35;;;3.00;92.00;;;;;;5046463;28;20025;-83
2022/04/08 05:27:56;;;;;;;8.70;1.73;;;3.00;92.20;;;;;;5037908;28;20021;-82
2022/04/08 05:30:22;;;;;;;6.43;1.40;;;3.00;92.20;;;;;;5037154;28;20399;-83
2022/04/08 05:32:48;;;;;;;8.57;1.67;;;3.10;92.00;;;;;;5051173;28;20024;-83
2022/04/08 05:35:15;;;;;;;13.00;1.73;;;3.10;92.00;;;;;;5052357;28;20447;-83
2022/04/08 05:37:44;;;;;;;9.88;1.77;;;3.10;91.80;;;;;;5036912;28;20369;-83
2022/04/08 05:40:18;;;;;;;9.80;1.75;;;3.20;91.90;;;;;;5053993;28;20045;-83
2022/04/08 05:42:45;;;;;;;10.50;2.00;;;3.30;91.90;;;;;;5053398;28;20155;-83
2022/04/08 05:45:11;;;;;;;12.13;1.98;;;3.40;91.60;;;;;;5037458;28;20033;-83
2022/04/08 05:47:38;;;;;;;7.70;1.67;;;3.50;91.40;;;;;;5033986;28;20048;-83
2022/04/08 05:50:04;;;;;;;8.63;1.83;;;3.60;90.50;;;;;;5045271;28;20028;-83
2022/04/08 05:52:30;;;;;;;7.55;1.60;;;3.60;90.20;;;;;;5035986;28;20107;-83
2022/04/08 05:54:55;;;;;;;4.07;1.08;;;3.70;89.50;;;;;;5054874;28;20104;-83
2022/04/08 05:57:21;;;;;;;9.98;1.27;;;3.70;89.30;;;;;;5054870;28;20025;-83
2022/04/08 05:59:47;;;;;;;4.38;1.23;;;3.70;89.00;;;;;;5037638;28;20051;-83
2022/04/08 06:02:12;;;;;;;4.65;0.93;;;3.80;89.20;;;;;;5055660;28;20021;-82
2022/04/08 06:04:38;;;;;;;8.40;1.30;;;3.80;88.40;;;;;;5050983;28;20025;-83
2022/04/08 06:07:04;;;;;;;7.78;1.38;;;3.80;88.70;;;;;;5031744;28;20063;-83
2022/04/08 06:09:29;;;;;;;2.70;1.05;;;3.70;89.20;;;;;;5036899;28;20046;-82
2022/04/08 06:11:55;;;;;;;3.63;1.08;;;3.70;89.60;;;;;;5054771;28;20052;-83
2022/04/08 06:14:20;;;;;;;6.82;1.05;;;3.70;90.20;;;;;;5054182;28;20033;-83
2022/04/08 06:16:46;;;;;;;2.00;0.80;;;3.70;90.60;;;;;;5054684;28;20407;-82
2022/04/08 06:19:12;;;;;;;5.65;1.05;;;3.70;91.10;;;;;;5033703;28;20029;-83
2022/04/08 06:21:37;;;;;;;3.33;0.93;;;3.50;91.40;;;;;;5039575;28;20029;-83
2022/04/08 06:24:03;;;;;;;3.80;1.05;;;3.40;91.50;;;;;;5047050;28;20025;-82
2022/04/08 06:26:28;;;;;;;2.85;0.43;;;3.20;91.50;;;;;;5036748;28;20248;-82
2022/04/08 06:28:54;;;;;;;2.78;0.38;;;3.00;91.50;;;;;;5036416;28;20415;-82
2022/04/08 06:31:19;;;;;;;0.95;0.40;;;2.80;91.80;;;;;;5049493;28;20115;-82
2022/04/08 06:33:45;;;;;;;1.83;0.52;;;2.60;92.50;;;;;;5028193;28;20111;-82
2022/04/08 06:36:10;;;;;;;1.58;0.60;;;2.50;92.80;;;;;;5052622;28;20258;-83
2022/04/08 06:38:36;;;;;;;2.17;0.40;;;2.20;92.90;;;;;;5054026;28;20029;-82
2022/04/08 06:41:01;;;;;;;2.80;0.65;;;1.80;93.20;;;;;;5022870;28;20401;-83
2022/04/08 06:43:27;;;;;;;2.33;0.82;;;1.70;93.70;;;;;;5036280;28;20029;-83
2022/04/08 06:45:53;;;;;;;2.70;0.60;;;1.70;94.10;;;;;;5052263;28;20112;-83
2022/04/08 06:48:18;;;;;;;2.10;0.47;;;1.60;94.20;;;;;;5032615;28;20029;-83
2022/04/08 06:50:44;;;;;;;3.70;0.93;;;1.50;94.40;;;;;;5027896;28;20048;-82
2022/04/08 06:53:09;;;;;;;1.15;0.80;;;1.60;94.70;;;;;;5035119;28;20040;-83
2022/04/08 06:55:35;;;;;;;2.88;0.80;;;1.70;94.80;;;;;;5050361;28;20456;-82
2022/04/08 06:58:03;;;;;;;2.72;0.70;;;1.70;94.70;;;;;;5049174;28;20025;-82
2022/04/08 07:00:30;;;;;;;1.92;0.80;;;1.80;94.90;;;;;;5035175;28;20024;-83
2022/04/08 07:02:56;;;;;;;1.67;0.77;;;1.90;95.00;;;;;;5052189;28;20091;-83
2022/04/08 07:05:21;;;;;;;5.65;0.80;;;1.90;94.90;;;;;;5051042;28;20065;-83
2022/04/08 07:07:47;;;;;;;1.63;0.73;;;2.10;95.00;;;;;;5035496;28;20571;-82
2022/04/08 07:10:14;;;;;;;4.03;0.93;;;2.00;94.80;;;;;;5035750;28;20028;-82
2022/04/08 07:12:39;;;;;;;3.90;0.70;;;2.10;94.90;;;;;;5028553;28;20423;-83
2022/04/08 07:15:06;;;;;;;2.08;1.00;;;2.10;94.90;;;;;;5052495;28;20589;-83
2022/04/08 07:17:33;;;;;;;4.88;1.38;;;2.30;94.90;;;;;;5034576;28;20029;-82
2022/04/08 07:19:59;;;;;;;5.07;1.40;;;2.40;94.90;;;;;;5026716;28;20026;-82
2022/04/08 07:22:26;;;;;;;5.13;1.30;;;2.60;95.00;;;;;;5026592;28;20056;-82
2022/04/08 07:24:53;;;;;;;3.63;1.25;;;2.70;94.90;;;;;;5041888;28;20450;-82
2022/04/08 07:27:20;;;;;;;4.65;1.40;;;2.80;94.70;;;;;;5035256;28;20051;-83
2022/04/08 07:29:47;;;;;;;4.88;1.40;;;2.90;94.70;;;;;;5048349;28;20048;-83
2022/04/08 07:32:20;;;;;;;9.25;1.33;;;2.90;94.70;;;;;;5047392;28;20029;-83
2022/04/08 07:34:45;;;;;;;2.63;1.08;;;2.90;94.40;;;;;;5033148;28;20400;-82
2022/04/08 07:37:11;;;;;;;6.55;2.17;;;3.10;94.50;;;;;;5035352;28;20120;-82
2022/04/08 07:39:41;;;;;;;5.10;1.75;;;3.10;94.20;;;;;;5034051;28;20469;-82
2022/04/08 07:42:07;;;;;;;7.25;2.05;;;3.30;94.30;;;;;;5052328;28;20028;-82
2022/04/08 07:44:33;;;;;;;5.90;2.10;;;3.60;94.40;;;;;;5052742;28;20480;-83
2022/04/08 07:46:58;;;;;;;7.35;2.00;;;3.60;94.20;;;;;;5029784;28;20053;-83
2022/04/08 07:49:24;;;;;;;3.72;1.75;;;3.60;93.90;;;;;;5025898;28;20025;-83
2022/04/08 07:51:49;;;;;;;4.43;1.63;;;3.80;93.00;;;;;;5026972;28;20025;-83
2022/04/08 07:54:15;;;;;;;5.80;1.92;;;3.90;93.10;;;;;;5044710;28;20029;-83
2022/04/08 07:56:40;;;;;;;7.70;1.92;;;4.00;92.30;;;;;;5045165;28;20064;-83
2022/04/08 07:59:06;;;;;;;4.82;1.77;;;4.20;92.10;;;;;;5043678;28;20528;-82
2022/04/08 08:01:31;;;;;;;7.35;1.75;;;4.70;92.00;;;;;;5028577;28;20108;-83
2022/04/08 08:03:57;;;;;;;5.28;1.85;;;4.80;91.10;;;;;;5020021;28;20029;-82
2022/04/08 08:06:22;;;;;;;3.53;1.55;;;4.70;90.40;;;;;;5043661;28;20032;-82
2022/04/08 08:08:50;;;;;;;4.88;1.40;;;4.50;90.50;;;;;;5035690;28;20468;-83
2022/04/08 08:11:17;;;;;;;4.47;1.52;;;4.50;90.70;;;;;;5035442;28;20049;-83
2022/04/08 08:13:43;;;;;;;4.32;1.20;;;4.70;89.50;;;;;;5047432;28;20104;-82
2022/04/08 08:16:09;;;;;;;3.72;1.30;;;4.70;89.40;;;;;;5051676;28;20112;-82
2022/04/08 08:18:35;;;;;;;3.95;1.63;;;4.70;89.50;;;;;;5027490;28;20021;-83
2022/04/08 08:21:00;;;;;;;3.83;1.20;;;4.70;89.10;;;;;;5045750;28;20022;-83
2022/04/08 08:23:27;;;;;;;3.05;1.20;;;4.70;89.60;;;;;;5051439;28;20024;-83
2022/04/08 08:25:53;;;;;;;7.68;1.45;;;4.90;89.30;;;;;;5033212;28;20079;-82
2022/04/08 08:28:18;;;;;;;3.53;1.20;;;5.20;89.00;;;;;;5033882;28;20029;-82
2022/04/08 08:30:45;;;;;;;3.47;1.40;;;5.00;88.40;;;;;;5035189;28;20036;-82
2022/04/08 08:33:11;;;;;;;5.65;1.23;;;4.90;88.90;;;;;;5037217;28;20543;-83
2022/04/08 08:35:36;;;;;;;5.60;1.83;;;5.00;89.00;;;;;;5052667;28;20045;-82
2022/04/08 08:38:03;;;;;;;3.03;1.27;;;5.20;89.40;;;;;;5036386;28;20024;-82
2022/04/08 08:40:33;;;;;;;5.05;2.17;;;5.50;88.60;;;;;;5037106;28;20400;-82
2022/04/08 08:43:02;;;;;;;7.07;1.52;;;5.30;87.40;;;;;;5047560;28;20442;-83
2022/04/08 08:45:32;;;;;;;7.50;1.50;;;5.10;86.90;;;;;;5068548;28;20036;-82
2022/04/08 08:48:01;;;;;;;7.30;1.73;;;5.50;88.00;;;;;;5040755;28;20025;-82
2022/04/08 08:50:28;;;;;;;5.20;1.58;;;5.60;87.50;;;;;;5055253;28;20426;-82
2022/04/08 08:52:54;;;;;;;3.88;1.48;;;5.70;86.50;;;;;;5036550;28;20396;-82
2022/04/08 08:55:19;;;;;;;6.13;1.67;;;5.80;87.40;;;;;;5046729;28;20033;-82
2022/04/08 08:57:47;;;;;;;8.65;1.58;;;5.60;86.30;;;;;;5034826;28;20052;-82
2022/04/08 09:00:16;;;;;;;2.97;1.10;;;5.60;85.80;;;;;;5036700;28;20047;-82
2022/04/08 09:02:43;;;;;;;6.45;1.38;;;5.60;85.60;;;;;;5037914;28;20566;-82
2022/04/08 09:05:17;;;;;;;5.15;1.48;;;5.90;85.30;;;;;;5035077;28;20025;-83
2022/04/08 09:07:53;;;;;;;2.85;1.02;;;6.00;84.70;;;;;;5036043;28;20427;-82
2022/04/08 09:10:33;;;;;;;3.03;1.20;;;5.80;84.10;;;;;;5036499;28;20396;-82
2022/04/08 09:13:00;;;;;;;5.93;1.25;;;5.90;84.60;;;;;;5051657;28;20025;-82
2022/04/08 09:15:27;;;;;;;7.20;1.75;;;5.60;84.80;;;;;;5021567;28;20036;-82
2022/04/08 09:17:53;;;;;;;9.07;1.85;;;5.50;84.30;;;;;;5030200;28;20610;-82
2022/04/08 09:20:19;;;;;;;7.65;1.38;;;5.40;84.90;;;;;;5023069;28;20124;-82
2022/04/08 09:22:54;;;;;;;4.00;1.20;;;5.60;85.60;;;;;;5046341;28;20472;-82
2022/04/08 09:25:24;;;;;;;4.25;1.30;;;5.90;84.90;;;;;;5035051;28;20028;-82
2022/04/08 09:27:49;;;;;;;6.45;1.42;;;6.00;82.60;;;;;;5026910;28;20119;-82
2022/04/08 09:30:19;;;;;;;4.82;1.58;;;5.90;83.30;;;;;;5036340;28;20120;-82
2022/04/08 09:32:45;;;;;;;3.65;1.20;;;6.40;83.60;;;;;;5053427;28;20078;-82
2022/04/08 09:35:18;;;;;;;3.97;1.35;;;6.30;81.90;;;;;;5052423;28;20049;-82
2022/04/08 09:37:55;;;;;;;4.50;1.38;;;6.20;81.40;;;;;;5035342;28;20403;-82
2022/04/08 09:40:23;;;;;;;6.32;1.35;;;6.40;81.40;;;;;;5053489;28;20078;-82
2022/04/08 09:42:49;;;;;;;4.20;1.48;;;6.80;81.20;;;;;;5035230;28;20494;-82
2022/04/08 09:45:25;;;;;;;3.90;1.15;;;7.10;79.40;;;;;;5051848;28;20107;-82
2022/04/08 09:47:51;;;;;;;7.07;1.25;;;7.30;80.50;;;;;;5039373;28;20452;-82
2022/04/08 09:50:16;;;;;;;2.13;1.10;;;7.30;80.20;;;;;;5044994;28;20033;-82
2022/04/08 09:52:44;;;;;;;1.65;0.95;;;7.30;80.30;;;;;;5033831;28;20529;-82
2022/04/08 09:55:10;;;;;;;3.72;1.30;;;7.70;79.20;;;;;;5034949;28;20029;-82
2022/04/08 09:57:39;;;;;;;5.60;1.30;;;7.90;77.90;;;;;;5053754;28;20067;-83
2022/04/08 10:00:08;;;;;;;5.53;1.02;;;7.90;76.20;;;;;;5049686;28;20017;-82
2022/04/08 10:02:39;;;;;;;5.97;1.20;;;8.40;77.10;;;;;;5051543;28;20480;-82
2022/04/08 10:05:06;;;;;;;3.05;0.90;;;8.20;73.50;;;;;;5032129;28;20036;-82
2022/04/08 10:07:32;;;;;;;5.80;1.40;;;8.10;72.80;;;;;;5034773;28;20033;-82
2022/04/08 10:10:08;;;;;;;4.13;1.00;;;9.00;75.20;;;;;;5035425;28;20396;-82
2022/04/08 10:12:43;;;;;;;4.43;0.80;;;9.10;73.90;;;;;;5061182;28;20057;-82
2022/04/08 10:15:23;;;;;;;3.03;0.90;;;9.10;70.10;;;;;;5050626;28;20138;-82
2022/04/08 10:18:00;;;;;;;1.75;0.65;;;8.90;70.50;;;;;;5034431;28;20176;-82
2022/04/08 10:20:28;;;;;;;5.85;0.85;;;9.00;69.80;;;;;;5051226;28;20465;-82
2022/04/08 10:23:08;;;;;;;5.18;0.80;;;8.80;68.00;;;;;;5030161;28;20400;-82
2022/04/08 10:25:40;;;;;;;3.50;0.98;;;8.80;69.60;;;;;;5034910;28;20381;-81
2022/04/08 10:28:07;;;;;;;2.95;0.77;;;8.60;69.20;;;;;;5031002;28;20039;-82
2022/04/08 10:30:43;;;;;;;3.15;0.90;;;8.30;70.20;;;;;;5049183;28;20036;-82
2022/04/08 10:33:11;;;;;;;2.13;0.50;;;8.80;69.30;;;;;;5033844;28;20559;-82
2022/04/08 10:35:37;;;;;;;2.33;0.60;;;8.50;66.80;;;;;;5058247;28;20049;-82
2022/04/08 10:38:07;;;;;;;2.28;0.80;;;8.40;66.20;;;;;;5054009;28;20013;-82
2022/04/08 10:40:35;;;;;;;2.17;0.57;;;8.20;67.80;;;;;;5081442;28;20032;-82
2022/04/08 10:43:04;;;;;;;3.55;0.88;;;7.70;68.30;;;;;;5073579;28;20036;-82
2022/04/08 10:45:30;;;;;;;3.55;0.73;;;8.10;69.10;;;;;;5072938;28;20046;-82
2022/04/08 10:47:59;;;;;;;5.95;1.23;;;8.10;67.70;;;;;;5043486;28;20038;-83
2022/04/08 10:50:33;;;;;;;5.25;0.70;;;8.00;70.70;;;;;;5052821;28;20050;-82
2022/04/08 10:53:10;;;;;;;2.72;0.80;;;8.30;67.00;;;;;;5053059;28;20036;-83
2022/04/08 10:55:56;;;;;;;2.30;0.77;;;8.70;68.60;;;;;;5070707;28;20032;-82
2022/04/08 10:58:30;;;;;;;5.75;1.40;;;8.80;67.80;;;;;;5050437;28;20029;-82
2022/04/08 11:00:56;;;;;;;2.00;0.75;;;8.60;68.60;;;;;;5067648;28;20049;-82
2022/04/08 11:03:29;;;;;;;2.55;0.90;;;7.90;68.90;;;;;;5068466;28;20041;-82
2022/04/08 11:05:55;;;;;;;4.00;0.98;;;7.80;71.10;;;;;;5045018;28;20025;-83
2022/04/08 11:08:26;;;;;;;3.28;1.05;;;6.70;77.10;;;;;;5058100;28;20036;-83
2022/04/08 11:10:59;;;;;;;2.58;0.95;;;6.80;78.20;;;;;;5057377;28;20404;-82
2022/04/08 11:13:25;;;;;;;4.97;1.10;;;7.60;79.40;;;;;;5059019;28;20047;-82
2022/04/08 11:15:51;;;;;;;6.45;1.25;;;8.20;77.40;;;;;;5053265;28;20293;-83
2022/04/08 11:18:18;;;;;;;3.40;1.23;;;9.00;77.30;;;;;;5052915;28;20051;-83
2022/04/08 11:20:49;;;;;;;3.95;0.95;;;8.80;69.60;;;;;;5039334;28;20052;-83
2022/04/08 11:23:27;;;;;;;5.75;1.08;;;9.10;70.70;;;;;;5040870;28;20032;-83
2022/04/08 11:25:53;;;;;;;7.45;1.30;;;9.10;71.10;;;;;;5072360;28;20131;-83
2022/04/08 11:28:21;;;;;;;2.42;0.70;;;9.20;69.40;;;;;;5054412;28;20107;-83
2022/04/08 11:30:53;;;;;;;1.80;1.10;;;8.90;66.90;;;;;;5054528;28;20430;-82
2022/04/08 11:33:19;;;;;;;4.35;1.20;;;9.30;68.60;;;;;;5053344;28;20029;-83
2022/04/08 11:35:47;;;;;;;4.43;1.23;;;9.10;69.50;;;;;;5057832;28;20059;-83
2022/04/08 11:38:17;;;;;;;4.75;1.23;;;8.50;68.50;;;;;;5061293;28;20021;-83
2022/04/08 11:40:43;;;;;;;4.33;1.63;;;8.20;70.60;;;;;;5071972;28;20487;-83
2022/04/08 11:43:12;;;;;;;10.88;5.60;;;7.90;72.90;;;;;;5070240;28;20027;-83
2022/04/08 11:45:37;;;;;;;10.60;4.85;;;7.70;71.70;;;;;;5058870;28;20033;-82
2022/04/08 11:48:06;;;;;;;3.90;1.38;;;7.80;72.40;;;;;;5069442;28;20027;-82
2022/04/08 11:50:35;;;;;;;4.07;1.02;;;7.40;75.70;;;;;;5068945;28;20185;-82
2022/04/08 11:53:02;;;;;;;3.42;0.90;;;7.20;78.70;;;;;;5069121;28;20036;-82
2022/04/08 11:55:28;;;;;;;2.80;1.10;;;7.00;79.10;;;;;;5069582;28;20032;-82
2022/04/08 11:57:55;;;;;;;6.97;1.35;;;7.20;79.20;;;;;;5066652;28;20074;-82
2022/04/08 12:00:30;;;;;;;2.28;0.90;;;7.10;79.70;;;;;;5066244;28;20074;-82
2022/04/08 12:02:57;;;;;;;2.47;0.80;;;6.90;79.10;;;;;;5069183;28;20048;-82
2022/04/08 12:05:29;;;;;;;4.40;1.30;;;6.60;80.20;;;;;;5055737;28;20020;-82
2022/04/08 12:07:58;;;;;;;3.35;1.20;;;7.20;81.20;;;;;;5069775;28;20033;-82
2022/04/08 12:10:24;;;;;;;1.60;1.00;;;7.40;81.20;;;;;;5070320;28;20070;-84
2022/04/08 12:12:50;;;;;;;3.22;0.95;;;7.60;79.80;;;;;;5056259;28;20056;-83
2022/04/08 12:15:22;;;;;;;5.32;1.00;;;8.00;79.20;;;;;;5070814;28;20410;-82
2022/04/08 12:17:47;;;;;;;3.85;0.82;;;8.50;78.30;;;;;;5068974;28;20057;-83
2022/04/08 12:20:14;;;;;;;2.47;0.70;;;9.00;74.90;;;;;;5068401;28;20499;-83
2022/04/08 12:22:40;;;;;;;1.77;0.50;;;9.00;74.20;;;;;;5067625;28;20476;-83
2022/04/08 12:25:06;;;;;;;1.23;0.60;;;9.60;74.10;;;;;;5070702;28;20029;-83
2022/04/08 12:27:32;;;;;;;2.60;0.68;;;9.40;73.20;;;;;;5070552;28;20029;-83
2022/04/08 12:30:08;;;;;;;3.88;0.80;;;9.40;73.70;;;;;;5069607;28;20063;-83
2022/04/08 12:32:36;;;;;;;1.73;0.55;;;9.00;70.20;;;;;;5069773;28;20138;-83
2022/04/08 12:35:03;;;;;;;3.03;0.60;;;9.60;68.50;;;;;;5069048;28;20117;-83
2022/04/08 12:37:28;;;;;;;2.17;0.50;;;10.00;69.80;;;;;;5058653;28;20113;-83
2022/04/08 12:39:54;;;;;;;1.83;0.60;;;10.00;69.70;;;;;;5071236;28;20482;-83
2022/04/08 12:42:19;;;;;;;1.83;0.68;;;9.90;67.80;;;;;;5070838;28;20025;-83
2022/04/08 12:44:45;;;;;;;6.18;0.80;;;10.10;67.20;;;;;;5052845;28;20028;-83
2022/04/08 12:47:11;;;;;;;2.17;0.80;;;10.50;66.70;;;;;;5053007;28;20033;-83
2022/04/08 12:49:36;;;;;;;1.75;0.60;;;10.90;67.00;;;;;;5039229;28;20091;-83
2022/04/08 12:52:02;;;;;;;1.55;0.70;;;10.20;64.50;;;;;;5067764;28;20017;-83
2022/04/08 12:54:28;;;;;;;2.20;0.77;;;9.70;68.80;;;;;;5052249;28;20484;-83